Almena, Kansas
Current Conditions -  °F | °C
As of 2:53 AM on Thursday 23 Oct 2014 (Local Time) from KHLC Reporting Station
Broken Clouds Broken Clouds  
Wind Chill: 13°   Ceiling: 400
Heat Index: 13°   Visibility: 7mi
Dew Point: 12°   Wind: 6mph
Humidity: 93%   Direction: 280°W
Pressure: 30.06"   Gusts: NA
Location:  39.89°N, 99.71°W
Report Text: KHLC 230753Z AUTO 28005KT 7SM BKN004 13/12 A3006 RMK AO2 SLP168 T01280117
Loading
Personal Weather Stations






























Interactive Weather Map
Tropical Storm Tracking
New forecast layout! Learn more

10-Day Weather Forecast

Advertisements
Track Severe Weather on mobile